sensor_id;sensor_type;location;lat;lon;timestamp;P1;durP1;ratioP1;P2;durP2;ratioP2
25391;SDS011;13329;48.402;11.718;2023-07-30T00:00:59;2.65;;;1.65;;
25391;SDS011;13329;48.402;11.718;2023-07-30T00:03:24;3.73;;;1.93;;
25391;SDS011;13329;48.402;11.718;2023-07-30T00:05:53;2.80;;;1.67;;
25391;SDS011;13329;48.402;11.718;2023-07-30T00:08:18;2.78;;;1.60;;
25391;SDS011;13329;48.402;11.718;2023-07-30T00:10:44;2.30;;;1.43;;
25391;SDS011;13329;48.402;11.718;2023-07-30T00:13:09;3.27;;;1.90;;
25391;SDS011;13329;48.402;11.718;2023-07-30T00:15:34;3.77;;;1.60;;
25391;SDS011;13329;48.402;11.718;2023-07-30T00:17:59;2.20;;;1.40;;
25391;SDS011;13329;48.402;11.718;2023-07-30T00:20:24;2.73;;;1.70;;
25391;SDS011;13329;48.402;11.718;2023-07-30T00:22:50;3.03;;;1.50;;
25391;SDS011;13329;48.402;11.718;2023-07-30T00:25:16;3.47;;;1.77;;
25391;SDS011;13329;48.402;11.718;2023-07-30T00:27:41;2.83;;;1.47;;
25391;SDS011;13329;48.402;11.718;2023-07-30T00:30:06;3.00;;;1.47;;
25391;SDS011;13329;48.402;11.718;2023-07-30T00:32:31;2.17;;;1.40;;
25391;SDS011;13329;48.402;11.718;2023-07-30T00:34:57;2.22;;;1.55;;
25391;SDS011;13329;48.402;11.718;2023-07-30T00:37:22;2.60;;;1.50;;
25391;SDS011;13329;48.402;11.718;2023-07-30T00:39:47;3.13;;;1.67;;
25391;SDS011;13329;48.402;11.718;2023-07-30T00:42:12;2.47;;;1.52;;
25391;SDS011;13329;48.402;11.718;2023-07-30T00:44:37;3.77;;;1.70;;
25391;SDS011;13329;48.402;11.718;2023-07-30T00:47:02;2.67;;;1.60;;
25391;SDS011;13329;48.402;11.718;2023-07-30T00:49:28;2.78;;;1.33;;
25391;SDS011;13329;48.402;11.718;2023-07-30T00:51:53;1.97;;;1.37;;
25391;SDS011;13329;48.402;11.718;2023-07-30T00:54:21;6.43;;;2.10;;
25391;SDS011;13329;48.402;11.718;2023-07-30T00:56:48;3.57;;;1.60;;
25391;SDS011;13329;48.402;11.718;2023-07-30T00:59:14;4.13;;;1.30;;
25391;SDS011;13329;48.402;11.718;2023-07-30T01:01:39;4.10;;;1.50;;
25391;SDS011;13329;48.402;11.718;2023-07-30T01:04:06;2.08;;;1.17;;
25391;SDS011;13329;48.402;11.718;2023-07-30T01:06:31;2.00;;;1.27;;
25391;SDS011;13329;48.402;11.718;2023-07-30T01:11:38;2.85;;;1.52;;
25391;SDS011;13329;48.402;11.718;2023-07-30T01:14:05;4.90;;;1.80;;
25391;SDS011;13329;48.402;11.718;2023-07-30T01:16:30;2.85;;;1.40;;
25391;SDS011;13329;48.402;11.718;2023-07-30T01:18:55;2.55;;;1.75;;
25391;SDS011;13329;48.402;11.718;2023-07-30T01:21:21;2.30;;;1.60;;
25391;SDS011;13329;48.402;11.718;2023-07-30T01:23:46;2.33;;;1.43;;
25391;SDS011;13329;48.402;11.718;2023-07-30T01:26:12;3.83;;;1.60;;
25391;SDS011;13329;48.402;11.718;2023-07-30T01:28:41;2.47;;;1.52;;
25391;SDS011;13329;48.402;11.718;2023-07-30T01:31:08;2.33;;;1.60;;
25391;SDS011;13329;48.402;11.718;2023-07-30T01:33:33;2.13;;;1.45;;
25391;SDS011;13329;48.402;11.718;2023-07-30T01:35:59;3.73;;;1.57;;
25391;SDS011;13329;48.402;11.718;2023-07-30T01:38:25;2.53;;;1.40;;
25391;SDS011;13329;48.402;11.718;2023-07-30T01:40:50;2.30;;;1.40;;
25391;SDS011;13329;48.402;11.718;2023-07-30T01:43:15;2.27;;;1.50;;
25391;SDS011;13329;48.402;11.718;2023-07-30T01:45:40;3.27;;;1.40;;
25391;SDS011;13329;48.402;11.718;2023-07-30T01:48:06;4.07;;;1.70;;
25391;SDS011;13329;48.402;11.718;2023-07-30T01:50:31;2.75;;;1.75;;
25391;SDS011;13329;48.402;11.718;2023-07-30T01:52:56;2.97;;;1.70;;
25391;SDS011;13329;48.402;11.718;2023-07-30T01:55:21;3.17;;;1.67;;
25391;SDS011;13329;48.402;11.718;2023-07-30T01:57:47;4.90;;;1.70;;
25391;SDS011;13329;48.402;11.718;2023-07-30T02:00:12;4.07;;;2.03;;
25391;SDS011;13329;48.402;11.718;2023-07-30T02:02:37;2.93;;;1.43;;
25391;SDS011;13329;48.402;11.718;2023-07-30T02:05:03;4.30;;;1.63;;
25391;SDS011;13329;48.402;11.718;2023-07-30T02:07:28;3.10;;;1.77;;
25391;SDS011;13329;48.402;11.718;2023-07-30T02:09:53;2.60;;;1.53;;
25391;SDS011;13329;48.402;11.718;2023-07-30T02:12:18;4.40;;;1.27;;
25391;SDS011;13329;48.402;11.718;2023-07-30T02:14:43;4.03;;;1.83;;
25391;SDS011;13329;48.402;11.718;2023-07-30T02:17:08;3.70;;;1.63;;
25391;SDS011;13329;48.402;11.718;2023-07-30T02:19:34;7.10;;;1.67;;
25391;SDS011;13329;48.402;11.718;2023-07-30T02:21:59;3.87;;;1.70;;
25391;SDS011;13329;48.402;11.718;2023-07-30T02:24:24;2.73;;;1.40;;
25391;SDS011;13329;48.402;11.718;2023-07-30T02:26:49;3.60;;;1.80;;
25391;SDS011;13329;48.402;11.718;2023-07-30T02:29:14;2.17;;;1.43;;
25391;SDS011;13329;48.402;11.718;2023-07-30T02:31:39;3.55;;;1.60;;
25391;SDS011;13329;48.402;11.718;2023-07-30T02:34:05;2.03;;;1.20;;
25391;SDS011;13329;48.402;11.718;2023-07-30T02:36:31;2.80;;;1.50;;
25391;SDS011;13329;48.402;11.718;2023-07-30T02:38:57;4.45;;;1.67;;
25391;SDS011;13329;48.402;11.718;2023-07-30T02:41:22;4.97;;;1.63;;
25391;SDS011;13329;48.402;11.718;2023-07-30T02:43:47;2.57;;;1.47;;
25391;SDS011;13329;48.402;11.718;2023-07-30T02:46:12;2.70;;;1.43;;
25391;SDS011;13329;48.402;11.718;2023-07-30T02:48:37;2.37;;;1.43;;
25391;SDS011;13329;48.402;11.718;2023-07-30T02:51:02;4.10;;;1.70;;
25391;SDS011;13329;48.402;11.718;2023-07-30T02:53:28;2.23;;;1.40;;
25391;SDS011;13329;48.402;11.718;2023-07-30T02:55:53;2.97;;;1.60;;
25391;SDS011;13329;48.402;11.718;2023-07-30T02:58:18;2.57;;;1.43;;
25391;SDS011;13329;48.402;11.718;2023-07-30T03:00:43;5.90;;;1.87;;
25391;SDS011;13329;48.402;11.718;2023-07-30T03:03:09;2.87;;;1.70;;
25391;SDS011;13329;48.402;11.718;2023-07-30T03:05:34;2.85;;;1.42;;
25391;SDS011;13329;48.402;11.718;2023-07-30T03:07:59;3.50;;;1.50;;
25391;SDS011;13329;48.402;11.718;2023-07-30T03:10:24;2.73;;;1.67;;
25391;SDS011;13329;48.402;11.718;2023-07-30T03:12:49;3.30;;;1.70;;
25391;SDS011;13329;48.402;11.718;2023-07-30T03:15:14;2.20;;;1.30;;
25391;SDS011;13329;48.402;11.718;2023-07-30T03:17:40;2.53;;;1.63;;
25391;SDS011;13329;48.402;11.718;2023-07-30T03:20:05;2.50;;;1.33;;
25391;SDS011;13329;48.402;11.718;2023-07-30T03:22:30;3.25;;;1.73;;
25391;SDS011;13329;48.402;11.718;2023-07-30T03:24:56;2.53;;;1.50;;
25391;SDS011;13329;48.402;11.718;2023-07-30T03:27:21;2.97;;;1.63;;
25391;SDS011;13329;48.402;11.718;2023-07-30T03:29:46;2.27;;;1.50;;
25391;SDS011;13329;48.402;11.718;2023-07-30T03:32:11;2.83;;;1.53;;
25391;SDS011;13329;48.402;11.718;2023-07-30T03:34:36;1.93;;;1.30;;
25391;SDS011;13329;48.402;11.718;2023-07-30T03:37:01;1.93;;;1.30;;
25391;SDS011;13329;48.402;11.718;2023-07-30T03:39:27;2.43;;;1.20;;
25391;SDS011;13329;48.402;11.718;2023-07-30T03:41:52;2.67;;;1.30;;
25391;SDS011;13329;48.402;11.718;2023-07-30T03:44:17;2.73;;;1.60;;
25391;SDS011;13329;48.402;11.718;2023-07-30T03:46:43;5.13;;;1.50;;
25391;SDS011;13329;48.402;11.718;2023-07-30T03:49:08;1.55;;;1.23;;
25391;SDS011;13329;48.402;11.718;2023-07-30T03:51:33;2.30;;;1.57;;
25391;SDS011;13329;48.402;11.718;2023-07-30T03:53:58;2.87;;;1.70;;
25391;SDS011;13329;48.402;11.718;2023-07-30T03:56:23;1.97;;;1.20;;
25391;SDS011;13329;48.402;11.718;2023-07-30T03:58:50;3.75;;;1.23;;
25391;SDS011;13329;48.402;11.718;2023-07-30T04:01:15;2.33;;;1.20;;
25391;SDS011;13329;48.402;11.718;2023-07-30T04:03:40;2.33;;;1.53;;
25391;SDS011;13329;48.402;11.718;2023-07-30T04:06:05;2.13;;;1.20;;
25391;SDS011;13329;48.402;11.718;2023-07-30T04:08:30;1.77;;;1.23;;
25391;SDS011;13329;48.402;11.718;2023-07-30T04:10:55;2.20;;;1.37;;
25391;SDS011;13329;48.402;11.718;2023-07-30T04:13:21;1.50;;;1.10;;
25391;SDS011;13329;48.402;11.718;2023-07-30T04:15:49;2.37;;;1.40;;
25391;SDS011;13329;48.402;11.718;2023-07-30T04:18:14;2.35;;;1.35;;
25391;SDS011;13329;48.402;11.718;2023-07-30T04:20:39;2.47;;;1.20;;
25391;SDS011;13329;48.402;11.718;2023-07-30T04:23:04;3.50;;;1.30;;
25391;SDS011;13329;48.402;11.718;2023-07-30T04:25:29;2.10;;;1.27;;
25391;SDS011;13329;48.402;11.718;2023-07-30T04:27:54;1.70;;;1.10;;
25391;SDS011;13329;48.402;11.718;2023-07-30T04:30:20;2.35;;;1.15;;
25391;SDS011;13329;48.402;11.718;2023-07-30T04:32:45;2.13;;;1.30;;
25391;SDS011;13329;48.402;11.718;2023-07-30T04:35:10;2.37;;;1.47;;
25391;SDS011;13329;48.402;11.718;2023-07-30T04:37:36;3.60;;;1.52;;
25391;SDS011;13329;48.402;11.718;2023-07-30T04:40:01;2.50;;;1.70;;
25391;SDS011;13329;48.402;11.718;2023-07-30T04:42:26;3.50;;;1.40;;
25391;SDS011;13329;48.402;11.718;2023-07-30T04:44:51;2.90;;;1.53;;
25391;SDS011;13329;48.402;11.718;2023-07-30T04:47:17;3.60;;;1.90;;
25391;SDS011;13329;48.402;11.718;2023-07-30T04:49:42;2.80;;;1.43;;
25391;SDS011;13329;48.402;11.718;2023-07-30T04:52:07;7.17;;;1.93;;
25391;SDS011;13329;48.402;11.718;2023-07-30T04:54:33;4.40;;;1.70;;
25391;SDS011;13329;48.402;11.718;2023-07-30T04:56:58;4.45;;;1.90;;
25391;SDS011;13329;48.402;11.718;2023-07-30T04:59:23;3.42;;;2.00;;
25391;SDS011;13329;48.402;11.718;2023-07-30T05:01:49;3.43;;;1.90;;
25391;SDS011;13329;48.402;11.718;2023-07-30T05:04:14;2.15;;;1.40;;
25391;SDS011;13329;48.402;11.718;2023-07-30T05:06:39;2.67;;;1.87;;
25391;SDS011;13329;48.402;11.718;2023-07-30T05:09:04;2.17;;;1.53;;
25391;SDS011;13329;48.402;11.718;2023-07-30T05:11:30;2.72;;;1.77;;
25391;SDS011;13329;48.402;11.718;2023-07-30T05:13:55;3.92;;;1.98;;
25391;SDS011;13329;48.402;11.718;2023-07-30T05:16:20;3.60;;;1.90;;
25391;SDS011;13329;48.402;11.718;2023-07-30T05:18:45;2.73;;;1.70;;
25391;SDS011;13329;48.402;11.718;2023-07-30T05:21:10;2.33;;;1.47;;
25391;SDS011;13329;48.402;11.718;2023-07-30T05:23:36;2.77;;;1.63;;
25391;SDS011;13329;48.402;11.718;2023-07-30T05:26:01;3.67;;;1.77;;
25391;SDS011;13329;48.402;11.718;2023-07-30T05:28:26;3.43;;;1.90;;
25391;SDS011;13329;48.402;11.718;2023-07-30T05:30:51;2.00;;;1.43;;
25391;SDS011;13329;48.402;11.718;2023-07-30T05:33:16;3.70;;;1.50;;
25391;SDS011;13329;48.402;11.718;2023-07-30T05:35:41;2.40;;;1.47;;
25391;SDS011;13329;48.402;11.718;2023-07-30T05:38:06;3.87;;;1.67;;
25391;SDS011;13329;48.402;11.718;2023-07-30T05:40:32;2.93;;;1.60;;
25391;SDS011;13329;48.402;11.718;2023-07-30T05:42:57;2.67;;;1.70;;
25391;SDS011;13329;48.402;11.718;2023-07-30T05:45:22;3.50;;;1.77;;
25391;SDS011;13329;48.402;11.718;2023-07-30T05:47:47;3.33;;;1.20;;
25391;SDS011;13329;48.402;11.718;2023-07-30T05:50:12;2.40;;;1.40;;
25391;SDS011;13329;48.402;11.718;2023-07-30T05:52:38;2.83;;;1.60;;
25391;SDS011;13329;48.402;11.718;2023-07-30T05:55:03;1.90;;;1.40;;
25391;SDS011;13329;48.402;11.718;2023-07-30T05:57:28;3.75;;;1.50;;
25391;SDS011;13329;48.402;11.718;2023-07-30T05:59:53;2.63;;;1.53;;
25391;SDS011;13329;48.402;11.718;2023-07-30T06:02:18;2.25;;;1.55;;
25391;SDS011;13329;48.402;11.718;2023-07-30T06:04:44;3.27;;;1.60;;
25391;SDS011;13329;48.402;11.718;2023-07-30T06:07:09;3.23;;;1.50;;
25391;SDS011;13329;48.402;11.718;2023-07-30T06:09:34;2.00;;;1.37;;
25391;SDS011;13329;48.402;11.718;2023-07-30T06:11:59;3.67;;;1.53;;
25391;SDS011;13329;48.402;11.718;2023-07-30T06:14:25;2.43;;;1.50;;
25391;SDS011;13329;48.402;11.718;2023-07-30T06:16:50;2.55;;;1.80;;
25391;SDS011;13329;48.402;11.718;2023-07-30T06:19:16;2.92;;;1.35;;
25391;SDS011;13329;48.402;11.718;2023-07-30T06:21:41;5.72;;;1.60;;
25391;SDS011;13329;48.402;11.718;2023-07-30T06:24:07;3.70;;;1.30;;
25391;SDS011;13329;48.402;11.718;2023-07-30T06:26:32;3.87;;;1.40;;
25391;SDS011;13329;48.402;11.718;2023-07-30T06:28:57;3.00;;;1.73;;
25391;SDS011;13329;48.402;11.718;2023-07-30T06:31:22;1.83;;;1.23;;
25391;SDS011;13329;48.402;11.718;2023-07-30T06:33:48;2.57;;;1.53;;
25391;SDS011;13329;48.402;11.718;2023-07-30T06:36:13;5.17;;;1.00;;
25391;SDS011;13329;48.402;11.718;2023-07-30T06:38:38;2.87;;;1.50;;
25391;SDS011;13329;48.402;11.718;2023-07-30T06:41:03;1.87;;;1.47;;
25391;SDS011;13329;48.402;11.718;2023-07-30T06:43:28;2.17;;;1.57;;
25391;SDS011;13329;48.402;11.718;2023-07-30T06:45:53;2.30;;;1.43;;
25391;SDS011;13329;48.402;11.718;2023-07-30T06:48:19;2.67;;;1.58;;
25391;SDS011;13329;48.402;11.718;2023-07-30T06:50:44;1.93;;;1.33;;
25391;SDS011;13329;48.402;11.718;2023-07-30T06:53:10;2.50;;;1.50;;
25391;SDS011;13329;48.402;11.718;2023-07-30T06:55:35;3.10;;;1.40;;
25391;SDS011;13329;48.402;11.718;2023-07-30T06:58:00;1.67;;;1.40;;
25391;SDS011;13329;48.402;11.718;2023-07-30T07:00:25;2.30;;;1.30;;
25391;SDS011;13329;48.402;11.718;2023-07-30T07:02:50;3.97;;;1.60;;
25391;SDS011;13329;48.402;11.718;2023-07-30T07:05:16;2.17;;;1.43;;
25391;SDS011;13329;48.402;11.718;2023-07-30T07:07:41;5.53;;;1.45;;
25391;SDS011;13329;48.402;11.718;2023-07-30T07:10:06;2.03;;;1.20;;
25391;SDS011;13329;48.402;11.718;2023-07-30T07:12:32;4.78;;;1.63;;
25391;SDS011;13329;48.402;11.718;2023-07-30T07:14:57;1.63;;;1.17;;
25391;SDS011;13329;48.402;11.718;2023-07-30T07:17:23;4.22;;;1.65;;
25391;SDS011;13329;48.402;11.718;2023-07-30T07:19:48;2.38;;;1.30;;
25391;SDS011;13329;48.402;11.718;2023-07-30T07:22:14;3.37;;;1.30;;
25391;SDS011;13329;48.402;11.718;2023-07-30T07:24:39;2.53;;;1.47;;
25391;SDS011;13329;48.402;11.718;2023-07-30T07:27:04;2.60;;;1.30;;
25391;SDS011;13329;48.402;11.718;2023-07-30T07:29:29;1.58;;;1.38;;
25391;SDS011;13329;48.402;11.718;2023-07-30T07:31:55;1.97;;;1.30;;
25391;SDS011;13329;48.402;11.718;2023-07-30T07:34:20;2.93;;;1.40;;
25391;SDS011;13329;48.402;11.718;2023-07-30T07:36:45;2.65;;;1.40;;
25391;SDS011;13329;48.402;11.718;2023-07-30T07:39:10;1.97;;;1.20;;
25391;SDS011;13329;48.402;11.718;2023-07-30T07:41:36;1.90;;;1.20;;
25391;SDS011;13329;48.402;11.718;2023-07-30T07:44:01;1.90;;;1.17;;
25391;SDS011;13329;48.402;11.718;2023-07-30T07:46:26;1.73;;;1.07;;
25391;SDS011;13329;48.402;11.718;2023-07-30T07:48:52;1.83;;;1.15;;
25391;SDS011;13329;48.402;11.718;2023-07-30T07:51:17;3.33;;;1.33;;
25391;SDS011;13329;48.402;11.718;2023-07-30T07:53:42;2.27;;;1.20;;
25391;SDS011;13329;48.402;11.718;2023-07-30T07:56:07;3.53;;;1.37;;
25391;SDS011;13329;48.402;11.718;2023-07-30T07:58:33;1.75;;;1.10;;
25391;SDS011;13329;48.402;11.718;2023-07-30T08:00:59;2.55;;;1.10;;
25391;SDS011;13329;48.402;11.718;2023-07-30T08:03:24;1.75;;;1.05;;
25391;SDS011;13329;48.402;11.718;2023-07-30T08:05:51;2.60;;;1.15;;
25391;SDS011;13329;48.402;11.718;2023-07-30T08:08:16;1.93;;;1.13;;
25391;SDS011;13329;48.402;11.718;2023-07-30T08:10:41;1.70;;;1.03;;
25391;SDS011;13329;48.402;11.718;2023-07-30T08:13:11;1.52;;;1.17;;
25391;SDS011;13329;48.402;11.718;2023-07-30T08:15:36;3.22;;;1.00;;
25391;SDS011;13329;48.402;11.718;2023-07-30T08:18:02;1.60;;;0.90;;
25391;SDS011;13329;48.402;11.718;2023-07-30T08:20:27;2.90;;;1.13;;
25391;SDS011;13329;48.402;11.718;2023-07-30T08:22:52;2.27;;;1.07;;
25391;SDS011;13329;48.402;11.718;2023-07-30T08:25:17;2.90;;;1.30;;
25391;SDS011;13329;48.402;11.718;2023-07-30T08:27:42;2.03;;;1.13;;
25391;SDS011;13329;48.402;11.718;2023-07-30T08:30:08;1.67;;;1.13;;
25391;SDS011;13329;48.402;11.718;2023-07-30T08:32:33;2.67;;;1.30;;
25391;SDS011;13329;48.402;11.718;2023-07-30T08:34:58;2.70;;;1.30;;
25391;SDS011;13329;48.402;11.718;2023-07-30T08:37:23;3.43;;;1.40;;
25391;SDS011;13329;48.402;11.718;2023-07-30T08:39:48;1.00;;;0.90;;
25391;SDS011;13329;48.402;11.718;2023-07-30T08:42:14;2.25;;;1.00;;
25391;SDS011;13329;48.402;11.718;2023-07-30T08:44:39;1.87;;;1.00;;
25391;SDS011;13329;48.402;11.718;2023-07-30T08:47:04;1.53;;;1.13;;
25391;SDS011;13329;48.402;11.718;2023-07-30T08:49:30;1.57;;;1.13;;
25391;SDS011;13329;48.402;11.718;2023-07-30T08:51:57;2.85;;;1.40;;
25391;SDS011;13329;48.402;11.718;2023-07-30T08:54:23;3.03;;;1.40;;
25391;SDS011;13329;48.402;11.718;2023-07-30T08:56:49;2.88;;;1.25;;
25391;SDS011;13329;48.402;11.718;2023-07-30T08:59:14;1.33;;;0.98;;
25391;SDS011;13329;48.402;11.718;2023-07-30T09:01:40;1.58;;;1.08;;
25391;SDS011;13329;48.402;11.718;2023-07-30T09:04:06;2.88;;;1.20;;
25391;SDS011;13329;48.402;11.718;2023-07-30T09:06:31;1.60;;;0.85;;
25391;SDS011;13329;48.402;11.718;2023-07-30T09:08:57;1.88;;;1.25;;
25391;SDS011;13329;48.402;11.718;2023-07-30T09:11:25;1.57;;;1.13;;
25391;SDS011;13329;48.402;11.718;2023-07-30T09:13:50;1.40;;;1.08;;
25391;SDS011;13329;48.402;11.718;2023-07-30T09:16:18;1.05;;;0.75;;
25391;SDS011;13329;48.402;11.718;2023-07-30T09:18:46;2.83;;;1.33;;
25391;SDS011;13329;48.402;11.718;2023-07-30T09:21:12;6.90;;;1.60;;
25391;SDS011;13329;48.402;11.718;2023-07-30T09:23:41;5.55;;;2.28;;
25391;SDS011;13329;48.402;11.718;2023-07-30T09:26:07;5.30;;;2.60;;
25391;SDS011;13329;48.402;11.718;2023-07-30T09:28:32;5.30;;;1.60;;
25391;SDS011;13329;48.402;11.718;2023-07-30T09:31:01;1.23;;;0.87;;
25391;SDS011;13329;48.402;11.718;2023-07-30T09:33:26;1.73;;;1.00;;
25391;SDS011;13329;48.402;11.718;2023-07-30T09:35:52;1.83;;;1.00;;
25391;SDS011;13329;48.402;11.718;2023-07-30T09:38:18;1.40;;;0.82;;
25391;SDS011;13329;48.402;11.718;2023-07-30T09:40:44;1.55;;;0.90;;
25391;SDS011;13329;48.402;11.718;2023-07-30T09:43:10;1.38;;;0.70;;
25391;SDS011;13329;48.402;11.718;2023-07-30T09:45:36;1.65;;;1.00;;
25391;SDS011;13329;48.402;11.718;2023-07-30T09:48:02;1.63;;;0.70;;
25391;SDS011;13329;48.402;11.718;2023-07-30T09:50:28;1.95;;;1.00;;
25391;SDS011;13329;48.402;11.718;2023-07-30T09:52:53;1.20;;;1.00;;
25391;SDS011;13329;48.402;11.718;2023-07-30T09:55:19;2.42;;;1.20;;
25391;SDS011;13329;48.402;11.718;2023-07-30T09:57:44;1.13;;;0.87;;
25391;SDS011;13329;48.402;11.718;2023-07-30T10:00:09;2.00;;;1.20;;
25391;SDS011;13329;48.402;11.718;2023-07-30T10:02:40;1.50;;;1.25;;
25391;SDS011;13329;48.402;11.718;2023-07-30T10:05:10;5.40;;;1.60;;
25391;SDS011;13329;48.402;11.718;2023-07-30T10:07:35;2.53;;;1.10;;
25391;SDS011;13329;48.402;11.718;2023-07-30T10:10:01;1.98;;;1.08;;
25391;SDS011;13329;48.402;11.718;2023-07-30T10:12:28;2.80;;;2.20;;
25391;SDS011;13329;48.402;11.718;2023-07-30T10:14:55;2.50;;;1.38;;
25391;SDS011;13329;48.402;11.718;2023-07-30T10:17:20;2.23;;;1.50;;
25391;SDS011;13329;48.402;11.718;2023-07-30T10:19:49;1.57;;;1.10;;
25391;SDS011;13329;48.402;11.718;2023-07-30T10:24:55;3.45;;;1.27;;
25391;SDS011;13329;48.402;11.718;2023-07-30T10:27:24;1.13;;;0.80;;
25391;SDS011;13329;48.402;11.718;2023-07-30T10:29:49;1.98;;;1.10;;
25391;SDS011;13329;48.402;11.718;2023-07-30T10:35:40;1.63;;;1.08;;
25391;SDS011;13329;48.402;11.718;2023-07-30T10:38:12;1.40;;;0.77;;
25391;SDS011;13329;48.402;11.718;2023-07-30T10:40:38;1.65;;;0.88;;
25391;SDS011;13329;48.402;11.718;2023-07-30T10:43:04;1.67;;;1.00;;
25391;SDS011;13329;48.402;11.718;2023-07-30T10:45:47;0.95;;;0.88;;
25391;SDS011;13329;48.402;11.718;2023-07-30T10:48:12;1.63;;;0.93;;
25391;SDS011;13329;48.402;11.718;2023-07-30T10:50:38;1.70;;;0.90;;
25391;SDS011;13329;48.402;11.718;2023-07-30T10:53:03;1.38;;;0.95;;
25391;SDS011;13329;48.402;11.718;2023-07-30T10:55:31;1.55;;;0.90;;
25391;SDS011;13329;48.402;11.718;2023-07-30T10:57:56;1.05;;;0.70;;
25391;SDS011;13329;48.402;11.718;2023-07-30T11:00:22;2.83;;;1.00;;
25391;SDS011;13329;48.402;11.718;2023-07-30T11:02:53;2.10;;;0.80;;
25391;SDS011;13329;48.402;11.718;2023-07-30T11:05:18;1.67;;;1.00;;
25391;SDS011;13329;48.402;11.718;2023-07-30T11:07:48;2.63;;;0.90;;
25391;SDS011;13329;48.402;11.718;2023-07-30T11:10:14;1.65;;;0.93;;
25391;SDS011;13329;48.402;11.718;2023-07-30T11:12:39;1.57;;;1.00;;
25391;SDS011;13329;48.402;11.718;2023-07-30T11:15:04;1.90;;;0.77;;
25391;SDS011;13329;48.402;11.718;2023-07-30T11:17:30;2.00;;;0.80;;
25391;SDS011;13329;48.402;11.718;2023-07-30T11:19:55;0.80;;;0.70;;
25391;SDS011;13329;48.402;11.718;2023-07-30T11:22:28;0.90;;;0.70;;
25391;SDS011;13329;48.402;11.718;2023-07-30T11:24:54;1.02;;;0.73;;
25391;SDS011;13329;48.402;11.718;2023-07-30T11:27:20;0.93;;;0.70;;
25391;SDS011;13329;48.402;11.718;2023-07-30T11:29:53;1.50;;;0.73;;
25391;SDS011;13329;48.402;11.718;2023-07-30T11:32:18;0.85;;;0.60;;
25391;SDS011;13329;48.402;11.718;2023-07-30T11:34:43;1.70;;;0.87;;
25391;SDS011;13329;48.402;11.718;2023-07-30T11:37:08;1.10;;;0.70;;
25391;SDS011;13329;48.402;11.718;2023-07-30T11:39:34;1.02;;;0.70;;
25391;SDS011;13329;48.402;11.718;2023-07-30T11:41:59;1.10;;;0.80;;
25391;SDS011;13329;48.402;11.718;2023-07-30T11:44:29;1.52;;;0.75;;
25391;SDS011;13329;48.402;11.718;2023-07-30T11:46:54;1.73;;;0.80;;
25391;SDS011;13329;48.402;11.718;2023-07-30T11:49:19;1.73;;;0.98;;
25391;SDS011;13329;48.402;11.718;2023-07-30T11:51:46;0.98;;;0.60;;
25391;SDS011;13329;48.402;11.718;2023-07-30T11:54:19;1.20;;;0.70;;
25391;SDS011;13329;48.402;11.718;2023-07-30T11:56:45;1.08;;;0.73;;
25391;SDS011;13329;48.402;11.718;2023-07-30T11:59:10;1.20;;;0.70;;
25391;SDS011;13329;48.402;11.718;2023-07-30T12:01:36;2.00;;;0.93;;
25391;SDS011;13329;48.402;11.718;2023-07-30T12:04:05;3.67;;;0.60;;
25391;SDS011;13329;48.402;11.718;2023-07-30T12:06:40;1.05;;;0.70;;
25391;SDS011;13329;48.402;11.718;2023-07-30T12:14:14;1.80;;;0.60;;
25391;SDS011;13329;48.402;11.718;2023-07-30T12:16:39;1.27;;;0.80;;
25391;SDS011;13329;48.402;11.718;2023-07-30T12:19:04;1.40;;;0.77;;
25391;SDS011;13329;48.402;11.718;2023-07-30T12:21:30;1.05;;;0.80;;
25391;SDS011;13329;48.402;11.718;2023-07-30T12:23:55;2.20;;;0.67;;
25391;SDS011;13329;48.402;11.718;2023-07-30T12:26:20;2.50;;;0.73;;
25391;SDS011;13329;48.402;11.718;2023-07-30T12:28:45;3.27;;;1.10;;
25391;SDS011;13329;48.402;11.718;2023-07-30T12:31:10;3.17;;;1.00;;
25391;SDS011;13329;48.402;11.718;2023-07-30T12:33:35;1.73;;;0.70;;
25391;SDS011;13329;48.402;11.718;2023-07-30T12:36:01;1.35;;;0.80;;
25391;SDS011;13329;48.402;11.718;2023-07-30T12:38:26;1.20;;;0.80;;
25391;SDS011;13329;48.402;11.718;2023-07-30T12:40:51;1.83;;;0.83;;
25391;SDS011;13329;48.402;11.718;2023-07-30T12:43:16;3.80;;;1.00;;
25391;SDS011;13329;48.402;11.718;2023-07-30T12:45:44;2.03;;;0.80;;
25391;SDS011;13329;48.402;11.718;2023-07-30T12:48:09;1.63;;;1.00;;
25391;SDS011;13329;48.402;11.718;2023-07-30T12:50:34;4.60;;;1.00;;
25391;SDS011;13329;48.402;11.718;2023-07-30T12:52:59;0.80;;;0.63;;
25391;SDS011;13329;48.402;11.718;2023-07-30T12:55:24;1.73;;;0.82;;
25391;SDS011;13329;48.402;11.718;2023-07-30T12:57:49;1.27;;;0.70;;
25391;SDS011;13329;48.402;11.718;2023-07-30T13:00:15;1.57;;;0.80;;
25391;SDS011;13329;48.402;11.718;2023-07-30T13:02:41;1.88;;;0.80;;
25391;SDS011;13329;48.402;11.718;2023-07-30T13:05:06;2.77;;;0.90;;
25391;SDS011;13329;48.402;11.718;2023-07-30T13:07:31;1.08;;;0.80;;
25391;SDS011;13329;48.402;11.718;2023-07-30T13:10:03;1.73;;;0.80;;
25391;SDS011;13329;48.402;11.718;2023-07-30T13:12:29;1.13;;;0.82;;
25391;SDS011;13329;48.402;11.718;2023-07-30T13:14:54;0.93;;;0.60;;
25391;SDS011;13329;48.402;11.718;2023-07-30T13:17:19;1.63;;;0.90;;
25391;SDS011;13329;48.402;11.718;2023-07-30T13:19:44;1.50;;;0.80;;
25391;SDS011;13329;48.402;11.718;2023-07-30T13:22:09;1.40;;;0.73;;
25391;SDS011;13329;48.402;11.718;2023-07-30T13:24:34;1.20;;;0.60;;
25391;SDS011;13329;48.402;11.718;2023-07-30T13:27:01;1.25;;;0.90;;
25391;SDS011;13329;48.402;11.718;2023-07-30T13:29:26;2.20;;;0.93;;
25391;SDS011;13329;48.402;11.718;2023-07-30T13:31:51;3.10;;;0.80;;
25391;SDS011;13329;48.402;11.718;2023-07-30T13:34:16;1.80;;;1.03;;
25391;SDS011;13329;48.402;11.718;2023-07-30T13:36:42;1.23;;;0.80;;
25391;SDS011;13329;48.402;11.718;2023-07-30T13:39:07;1.13;;;0.80;;
25391;SDS011;13329;48.402;11.718;2023-07-30T13:41:32;1.80;;;1.00;;
25391;SDS011;13329;48.402;11.718;2023-07-30T13:43:57;2.30;;;0.97;;
25391;SDS011;13329;48.402;11.718;2023-07-30T13:46:22;1.90;;;0.97;;
25391;SDS011;13329;48.402;11.718;2023-07-30T13:48:47;2.53;;;0.93;;
25391;SDS011;13329;48.402;11.718;2023-07-30T13:51:12;2.28;;;1.02;;
25391;SDS011;13329;48.402;11.718;2023-07-30T13:53:38;1.45;;;1.02;;
25391;SDS011;13329;48.402;11.718;2023-07-30T13:56:06;1.90;;;0.90;;
25391;SDS011;13329;48.402;11.718;2023-07-30T13:58:31;2.00;;;1.10;;
25391;SDS011;13329;48.402;11.718;2023-07-30T14:00:56;4.07;;;1.00;;
25391;SDS011;13329;48.402;11.718;2023-07-30T14:03:21;2.87;;;0.90;;
25391;SDS011;13329;48.402;11.718;2023-07-30T14:05:46;1.03;;;0.77;;
25391;SDS011;13329;48.402;11.718;2023-07-30T14:08:11;1.07;;;0.80;;
25391;SDS011;13329;48.402;11.718;2023-07-30T14:10:37;1.20;;;0.80;;
25391;SDS011;13329;48.402;11.718;2023-07-30T14:13:02;1.10;;;0.90;;
25391;SDS011;13329;48.402;11.718;2023-07-30T14:15:27;1.50;;;0.90;;
25391;SDS011;13329;48.402;11.718;2023-07-30T14:17:52;2.73;;;0.90;;
25391;SDS011;13329;48.402;11.718;2023-07-30T14:20:19;2.20;;;0.90;;
25391;SDS011;13329;48.402;11.718;2023-07-30T14:22:44;1.00;;;0.90;;
25391;SDS011;13329;48.402;11.718;2023-07-30T14:25:09;1.20;;;0.90;;
25391;SDS011;13329;48.402;11.718;2023-07-30T14:27:34;3.10;;;1.03;;
25391;SDS011;13329;48.402;11.718;2023-07-30T14:30:00;1.88;;;1.05;;
25391;SDS011;13329;48.402;11.718;2023-07-30T14:32:25;2.27;;;0.90;;
25391;SDS011;13329;48.402;11.718;2023-07-30T14:34:50;1.93;;;0.93;;
25391;SDS011;13329;48.402;11.718;2023-07-30T14:37:15;2.67;;;1.17;;